Nære METAR værraporter

   
ENGM - Oslo
Oppdatert: 19-01-2019 00:50
Klart  
Klart  
   Vind: Stille
Vind: Stille
Temperatur: -10°C
Duggpunkt: -11°C
Luftfuktighet: 92%
Barometer: 1010 hPa
Sikt: More than 10 km
Detaljer skyer: Klart
ENGM 182350Z 00000KT CAVOK M10/M11 Q1010
ENTO - Sandefjord
Oppdatert: 19-01-2019 00:50
Klart  
Klart  
   Vind: SV 3.1 m/s
Vind: SV 3.1 m/s
Temperatur: -3°C
Wind Chill: -7°C
Duggpunkt: -8°C
Luftfuktighet: 69%
Barometer: 1011 hPa
Skyer: Klart
Sikt: More than 10 km
Detaljer skyer: Klart
ENTO 182350Z AUTO 22006KT 9999 R18/P2000N R36///// NCD M03/M08 Q1011
ENNO - Notodden
Oppdatert: 18-01-2019 18:50
Oppdatert, se klokkeslett
Klart  
Klart  
   Vind: varierende 0.5 m/s
Vind: varierende 0.5 m/s
Temperatur: -9°C
Duggpunkt: -10°C
Luftfuktighet: 93%
Barometer: 1012 hPa
Sikt: More than 10 km
Detaljer skyer: Klart
ENNO 181750Z VRB01KT CAVOK M09/M10 Q1012
ENRY - Rygge
Oppdatert: 19-01-2019 00:50
Klart  
Klart  
   Vind: ØSØ 1 m/s
Vind: ØSØ 1 m/s
Temperatur: -10°C
Duggpunkt: -11°C
Luftfuktighet: 92%
Barometer: 1011 hPa
Skyer: Klart
Sikt: 10 km
Detaljer skyer: Klart
ENRY 182350Z AUTO 11002KT 9999NDV NCD M10/M11 Q1011
ENSN - Skien
Oppdatert: 09-11-2015 09:50
Oppdatert, se klokkeslett
Klart  
Klart  
   Vind: SSV 5.1 m/s<br />Gust to 5.1 m/s
Vind: SSV 5.1 m/s
Gust to 5.1 m/s
Temperatur: 7°C
Wind Chill: 4°C
Duggpunkt: 3°C
Luftfuktighet: 76%
Barometer: 1000 hPa
Sikt: More than 10 km
Detaljer skyer: Klart
ENSN 090850Z 20010G22KT 150V240 CAVOK 07/03 Q1000
ENFG - Fagernes
Oppdatert: 22-04-2018 10:50
Oppdatert, se klokkeslett
Klart  
Klart  
   Vind: Sør 3.6 m/s
Vind: Sør 3.6 m/s
Temperatur: 6°C
Wind Chill: 3°C
Duggpunkt: -3°C
Luftfuktighet: 53%
Barometer: 1014 hPa
Sikt: More than 10 km
Detaljer skyer: Klart
ENFG 220850Z 19007KT CAVOK 06/M03 Q1014

Script utviklet av  Saratoga-weather.org Tilpasset for tamplaten av  Weerstation Leuven

Du finner min vær info også på:

European Weather Network

Weather Underground

European Weather Network